createdAt,value
2023-01-07T00:01:39.852Z,8.20
2023-01-07T00:04:10.903Z,8.30
2023-01-07T00:06:40.266Z,8.30
2023-01-07T00:09:10.588Z,8.20
2023-01-07T00:11:39.422Z,8.10
2023-01-07T00:14:09.127Z,8.00
2023-01-07T00:16:38.199Z,8.10
2023-01-07T00:19:07.283Z,8.20
2023-01-07T00:21:34.778Z,8.20
2023-01-07T00:24:06.095Z,8.10
2023-01-07T00:26:36.129Z,8.10
2023-01-07T00:29:04.366Z,8.00
2023-01-07T00:31:37.110Z,8.20
2023-01-07T00:34:04.736Z,8.20
2023-01-07T00:36:34.097Z,8.10
2023-01-07T00:39:12.013Z,7.90
2023-01-07T00:41:39.382Z,7.80
2023-01-07T00:44:07.457Z,7.80
2023-01-07T00:46:35.857Z,7.80
2023-01-07T00:49:03.189Z,7.80
2023-01-07T00:51:30.450Z,7.80
2023-01-07T00:53:57.693Z,7.80
2023-01-07T00:56:24.847Z,7.80
2023-01-07T00:58:52.059Z,7.80
2023-01-07T01:01:19.400Z,7.70
2023-01-07T01:03:47.021Z,7.70
2023-01-07T01:06:16.438Z,7.70
2023-01-07T01:08:45.638Z,7.80
2023-01-07T01:11:14.986Z,7.80
2023-01-07T01:13:43.534Z,7.70
2023-01-07T01:16:13.602Z,7.70
2023-01-07T01:18:41.346Z,7.50
2023-01-07T01:21:12.345Z,7.40
2023-01-07T01:23:39.901Z,7.30
2023-01-07T01:26:13.483Z,7.30
2023-01-07T01:28:41.622Z,7.20
2023-01-07T01:31:09.526Z,7.10
2023-01-07T01:33:37.529Z,7.10
2023-01-07T01:36:06.661Z,7.00
2023-01-07T01:38:34.155Z,7.00
2023-01-07T01:41:02.357Z,7.00
2023-01-07T01:43:35.258Z,6.90
2023-01-07T01:46:12.882Z,7.00
2023-01-07T01:48:46.013Z,7.00
2023-01-07T01:51:15.961Z,7.00
2023-01-07T01:53:43.640Z,7.10
2023-01-07T01:56:18.159Z,7.10
2023-01-07T01:59:03.332Z,7.10
2023-01-07T02:01:32.712Z,7.10
2023-01-07T02:04:02.224Z,7.10
2023-01-07T02:06:33.033Z,7.10
2023-01-07T02:09:00.429Z,7.00
2023-01-07T02:11:51.582Z,6.90
2023-01-07T02:14:35.251Z,6.80
2023-01-07T02:17:22.663Z,6.70
2023-01-07T02:20:21.914Z,6.70
2023-01-07T02:23:21.355Z,6.90
2023-01-07T02:25:57.459Z,6.90
2023-01-07T02:28:38.267Z,6.90
2023-01-07T02:31:23.761Z,6.90
2023-01-07T02:33:50.920Z,6.80
2023-01-07T02:36:54.144Z,6.90
2023-01-07T02:39:27.159Z,6.90
2023-01-07T02:42:27.503Z,6.80
2023-01-07T02:45:18.916Z,6.70
2023-01-07T02:47:57.370Z,6.70
2023-01-07T02:50:24.688Z,6.60
2023-01-07T02:52:52.113Z,6.50
2023-01-07T02:55:54.722Z,6.50
2023-01-07T02:58:46.501Z,6.50
2023-01-07T03:01:40.065Z,6.50
2023-01-07T03:04:38.758Z,6.50
2023-01-07T03:07:24.919Z,6.50
2023-01-07T03:10:25.195Z,6.50
2023-01-07T03:13:12.266Z,6.40
2023-01-07T03:16:14.382Z,6.20
2023-01-07T03:18:49.304Z,6.10
2023-01-07T03:21:19.633Z,6.10
2023-01-07T03:23:53.328Z,6.00
2023-01-07T03:26:30.794Z,6.00
2023-01-07T03:29:00.315Z,6.00
2023-01-07T03:31:30.122Z,5.90
2023-01-07T03:34:09.582Z,5.90
2023-01-07T03:36:53.375Z,5.90
2023-01-07T03:39:24.603Z,5.90
2023-01-07T03:42:18.854Z,5.80
2023-01-07T03:44:46.168Z,5.80
2023-01-07T03:47:13.707Z,5.80
2023-01-07T03:49:42.021Z,5.80
2023-01-07T03:52:09.272Z,5.90
2023-01-07T03:54:36.669Z,5.90
2023-01-07T03:57:04.418Z,5.90
2023-01-07T03:59:31.783Z,5.80
2023-01-07T04:01:59.274Z,5.70
2023-01-07T04:04:26.651Z,5.70
2023-01-07T04:06:54.225Z,5.70
2023-01-07T04:09:22.313Z,5.70
2023-01-07T04:11:49.774Z,6.00
2023-01-07T04:14:17.211Z,6.00
2023-01-07T04:16:44.582Z,6.10
2023-01-07T04:19:11.986Z,6.00
2023-01-07T04:21:39.201Z,6.00
2023-01-07T04:24:06.855Z,5.80
2023-01-07T04:26:34.140Z,5.80
2023-01-07T04:29:01.430Z,5.70
2023-01-07T04:31:28.784Z,5.60
2023-01-07T04:33:55.960Z,5.50
2023-01-07T04:36:23.329Z,5.40
2023-01-07T04:38:50.679Z,5.30
2023-01-07T04:41:17.974Z,5.30
2023-01-07T04:43:45.305Z,5.20
2023-01-07T04:46:12.603Z,5.20
2023-01-07T04:48:40.031Z,5.00
2023-01-07T04:51:07.197Z,4.90
2023-01-07T04:53:34.431Z,4.80
2023-01-07T04:56:01.909Z,4.80
2023-01-07T04:58:29.178Z,4.80
2023-01-07T05:00:58.842Z,4.80
2023-01-07T05:03:26.236Z,4.70
2023-01-07T05:05:53.434Z,4.70
2023-01-07T05:08:20.599Z,4.60
2023-01-07T05:10:51.045Z,4.60
2023-01-07T05:13:20.762Z,4.50
2023-01-07T05:15:48.950Z,4.50
2023-01-07T05:18:16.908Z,4.50
2023-01-07T05:20:44.250Z,4.40
2023-01-07T05:23:11.520Z,4.40
2023-01-07T05:25:38.758Z,4.30
2023-01-07T05:28:06.131Z,4.30
2023-01-07T05:30:33.501Z,4.30
2023-01-07T05:33:01.465Z,4.30
2023-01-07T05:35:28.688Z,4.30
2023-01-07T05:37:55.854Z,4.30
2023-01-07T05:40:23.125Z,4.30
2023-01-07T05:42:50.270Z,4.20
2023-01-07T05:45:18.210Z,4.20
2023-01-07T05:47:45.419Z,4.20
2023-01-07T05:50:12.949Z,4.20
2023-01-07T05:52:40.485Z,4.20
2023-01-07T05:55:09.003Z,4.20
2023-01-07T05:57:36.230Z,4.10
2023-01-07T06:00:04.516Z,4.20
2023-01-07T06:02:31.982Z,4.20
2023-01-07T06:04:59.177Z,4.20
2023-01-07T06:07:26.598Z,4.30
2023-01-07T06:09:53.989Z,4.30
2023-01-07T06:12:21.263Z,4.30
2023-01-07T06:14:48.490Z,4.30
2023-01-07T06:17:15.786Z,4.30
2023-01-07T06:19:43.139Z,4.40
2023-01-07T06:22:11.664Z,4.40
2023-01-07T06:24:39.347Z,4.40
2023-01-07T06:27:06.728Z,4.40
2023-01-07T06:29:34.666Z,4.30
2023-01-07T06:32:02.238Z,4.30
2023-01-07T06:34:30.392Z,4.30
2023-01-07T06:36:57.947Z,4.20
2023-01-07T06:39:25.417Z,4.20
2023-01-07T06:41:52.666Z,4.20
2023-01-07T06:44:19.988Z,4.10
2023-01-07T06:46:47.677Z,4.10
2023-01-07T06:49:15.158Z,4.00
2023-01-07T06:51:42.593Z,4.10
2023-01-07T06:54:11.104Z,4.00
2023-01-07T06:56:38.405Z,3.90
2023-01-07T06:59:05.687Z,3.90
2023-01-07T07:01:33.100Z,3.80
2023-01-07T07:04:00.520Z,3.90
2023-01-07T07:06:27.739Z,3.90
2023-01-07T07:08:55.117Z,3.90
2023-01-07T07:11:22.255Z,3.90
2023-01-07T07:13:49.817Z,3.80
2023-01-07T07:16:17.581Z,3.70
2023-01-07T07:18:44.948Z,3.70
2023-01-07T07:21:12.220Z,3.70
2023-01-07T07:23:39.760Z,3.70
2023-01-07T07:26:07.200Z,3.70
2023-01-07T07:28:34.414Z,3.60
2023-01-07T07:31:01.625Z,3.60
2023-01-07T07:33:29.101Z,3.60
2023-01-07T07:35:56.508Z,3.60
2023-01-07T07:38:25.274Z,3.70
2023-01-07T07:40:53.173Z,3.70
2023-01-07T07:43:20.447Z,3.80
2023-01-07T07:45:47.632Z,3.80
2023-01-07T07:48:16.676Z,3.80
2023-01-07T07:50:43.953Z,3.90
2023-01-07T07:53:12.047Z,4.00
2023-01-07T07:55:40.009Z,4.10
2023-01-07T07:58:07.560Z,4.20
2023-01-07T08:00:35.042Z,4.20
2023-01-07T08:03:02.509Z,4.30
2023-01-07T08:05:30.265Z,4.40
2023-01-07T08:07:58.747Z,4.50
2023-01-07T08:10:28.305Z,4.60
2023-01-07T08:12:55.497Z,4.70
2023-01-07T08:15:22.718Z,4.70
2023-01-07T08:18:06.811Z,4.80
2023-01-07T08:20:36.140Z,4.90
2023-01-07T08:23:04.519Z,5.00
2023-01-07T08:25:33.351Z,5.10
2023-01-07T08:28:02.228Z,5.10
2023-01-07T08:30:31.253Z,5.10
2023-01-07T08:32:59.389Z,5.20
2023-01-07T08:35:27.183Z,5.30
2023-01-07T08:38:01.962Z,5.30
2023-01-07T08:40:29.298Z,5.50
2023-01-07T08:43:03.939Z,5.60
2023-01-07T08:45:31.861Z,5.60
2023-01-07T08:48:00.167Z,5.60
2023-01-07T08:50:30.214Z,5.70
2023-01-07T08:52:57.751Z,5.90
2023-01-07T08:55:25.112Z,5.90
2023-01-07T08:57:52.677Z,6.00
2023-01-07T09:00:20.646Z,6.10
2023-01-07T09:02:48.481Z,6.20
2023-01-07T09:05:16.279Z,6.30
2023-01-07T09:07:43.704Z,6.40
2023-01-07T09:10:12.371Z,6.50
2023-01-07T09:12:39.695Z,6.60
2023-01-07T09:15:07.862Z,6.80
2023-01-07T09:17:35.219Z,6.80
2023-01-07T09:20:03.948Z,6.90
2023-01-07T09:22:36.686Z,7.00
2023-01-07T09:25:05.540Z,7.20
2023-01-07T09:27:32.888Z,7.40
2023-01-07T09:30:00.272Z,8.00
2023-01-07T09:32:32.318Z,9.60
2023-01-07T09:34:59.579Z,11.20
2023-01-07T09:37:26.917Z,12.40
2023-01-07T09:39:54.225Z,13.30
2023-01-07T09:42:36.858Z,13.50
2023-01-07T09:45:27.770Z,13.10
2023-01-07T09:47:58.297Z,13.10
2023-01-07T09:50:42.408Z,13.30
2023-01-07T09:53:18.453Z,13.80
2023-01-07T09:56:11.816Z,13.80
2023-01-07T09:58:37.851Z,13.10
2023-01-07T10:01:20.530Z,12.40
2023-01-07T10:04:32.223Z,11.60
2023-01-07T10:07:15.650Z,11.30
2023-01-07T10:10:05.299Z,11.20
2023-01-07T10:12:55.342Z,11.20
2023-01-07T10:15:46.421Z,11.20
2023-01-07T10:18:40.584Z,11.10
2023-01-07T10:21:16.940Z,11.10
2023-01-07T10:23:54.310Z,11.20
2023-01-07T10:26:42.110Z,11.20
2023-01-07T10:29:13.824Z,11.20
2023-01-07T10:31:42.310Z,11.10
2023-01-07T10:34:29.395Z,11.00
2023-01-07T10:37:37.224Z,10.70
2023-01-07T10:40:16.994Z,10.40
2023-01-07T10:43:21.443Z,10.30
2023-01-07T10:45:57.212Z,10.30
2023-01-07T10:48:46.253Z,10.30
2023-01-07T10:51:32.436Z,10.30
2023-01-07T10:54:14.308Z,10.20
2023-01-07T10:56:52.251Z,10.20
2023-01-07T10:59:22.135Z,10.20
2023-01-07T11:01:53.319Z,10.30
2023-01-07T11:04:21.431Z,10.20
2023-01-07T11:06:58.781Z,10.30
2023-01-07T11:09:33.008Z,10.30
2023-01-07T11:12:06.880Z,10.30
2023-01-07T11:14:39.705Z,10.30
2023-01-07T11:17:32.615Z,10.30
2023-01-07T11:20:00.001Z,10.40
2023-01-07T11:22:27.549Z,10.40
2023-01-07T11:24:56.779Z,10.40
2023-01-07T11:27:26.741Z,10.50
2023-01-07T11:29:57.012Z,10.50
2023-01-07T11:32:30.690Z,10.50
2023-01-07T11:35:05.936Z,10.40
2023-01-07T11:37:46.108Z,10.50
2023-01-07T11:40:13.457Z,10.60
2023-01-07T11:42:55.982Z,10.50
2023-01-07T11:45:44.052Z,10.50
2023-01-07T11:48:40.456Z,10.50
2023-01-07T11:51:11.206Z,10.60
2023-01-07T11:53:51.098Z,10.70
2023-01-07T11:56:21.047Z,10.70
2023-01-07T11:58:51.177Z,10.80
2023-01-07T12:01:23.746Z,10.80
2023-01-07T12:03:54.467Z,10.90
2023-01-07T12:06:34.705Z,11.00
2023-01-07T12:09:14.033Z,11.10
2023-01-07T12:11:43.804Z,11.30
2023-01-07T12:14:34.586Z,11.50
2023-01-07T12:17:16.519Z,11.70
2023-01-07T12:20:05.382Z,11.90
2023-01-07T12:22:48.664Z,12.20
2023-01-07T12:25:48.527Z,12.30
2023-01-07T12:28:30.487Z,12.50
2023-01-07T12:31:22.082Z,12.40
2023-01-07T12:34:05.181Z,12.30
2023-01-07T12:37:02.365Z,12.30
2023-01-07T12:39:38.011Z,12.20
2023-01-07T12:42:18.733Z,12.10
2023-01-07T12:45:00.298Z,12.20
2023-01-07T12:47:36.261Z,12.30
2023-01-07T12:50:07.592Z,12.70
2023-01-07T12:52:57.821Z,13.10
2023-01-07T12:55:31.717Z,13.30
2023-01-07T12:58:21.751Z,13.30
2023-01-07T13:01:26.963Z,13.90
2023-01-07T13:04:33.086Z,14.80
2023-01-07T13:07:17.034Z,15.90
2023-01-07T13:10:03.147Z,16.40
2023-01-07T13:12:48.978Z,16.90
2023-01-07T13:15:21.857Z,17.00
2023-01-07T13:17:54.421Z,17.50
2023-01-07T13:20:42.514Z,17.90
2023-01-07T13:23:18.793Z,17.70
2023-01-07T13:26:10.490Z,18.00
2023-01-07T13:29:02.591Z,17.70
2023-01-07T13:31:54.518Z,16.80
2023-01-07T13:34:34.300Z,16.00
2023-01-07T13:37:51.428Z,15.50
2023-01-07T13:40:57.461Z,15.10
2023-01-07T13:44:04.663Z,14.40
2023-01-07T13:46:39.444Z,14.00
2023-01-07T13:49:21.599Z,14.10
2023-01-07T13:51:49.195Z,14.40
2023-01-07T13:54:48.687Z,14.50
2023-01-07T13:57:36.326Z,14.70
2023-01-07T14:00:07.873Z,14.80
2023-01-07T14:02:58.001Z,14.70
2023-01-07T14:05:28.305Z,14.10
2023-01-07T14:08:00.460Z,13.50
2023-01-07T14:10:33.309Z,12.90
2023-01-07T14:13:19.583Z,12.70
2023-01-07T14:15:55.871Z,12.70
2023-01-07T14:18:29.283Z,12.70
2023-01-07T14:21:19.561Z,12.50
2023-01-07T14:24:24.505Z,12.20
2023-01-07T14:26:54.401Z,11.90
2023-01-07T14:29:39.950Z,11.70
2023-01-07T14:32:29.232Z,11.60
2023-01-07T14:35:01.473Z,11.40
2023-01-07T14:37:42.546Z,11.40
2023-01-07T14:40:29.547Z,11.30
2023-01-07T14:42:58.364Z,11.20
2023-01-07T14:45:38.562Z,11.10
2023-01-07T14:48:08.510Z,10.90
2023-01-07T14:50:57.381Z,10.90
2023-01-07T14:53:43.497Z,10.70
2023-01-07T14:56:14.841Z,10.60
2023-01-07T14:58:56.145Z,10.50
2023-01-07T15:01:42.129Z,10.30
2023-01-07T15:04:27.384Z,10.20
2023-01-07T15:06:59.828Z,10.00
2023-01-07T15:10:27.556Z,10.00
2023-01-07T15:13:18.021Z,9.90
2023-01-07T15:16:02.032Z,9.80
2023-01-07T15:18:44.654Z,9.60
2023-01-07T15:21:43.515Z,9.60
2023-01-07T15:24:54.897Z,9.50
2023-01-07T15:27:39.312Z,9.40
2023-01-07T15:30:29.235Z,9.30
2023-01-07T15:33:12.671Z,9.20
2023-01-07T15:35:43.287Z,9.10
2023-01-07T15:38:31.287Z,9.00
2023-01-07T15:40:59.936Z,8.90
2023-01-07T15:43:30.921Z,8.80
2023-01-07T15:46:04.878Z,8.70
2023-01-07T15:48:32.568Z,8.70
2023-01-07T15:51:00.824Z,8.60
2023-01-07T15:53:31.527Z,8.50
2023-01-07T15:56:01.131Z,8.40
2023-01-07T15:58:55.411Z,8.30
2023-01-07T16:01:25.217Z,8.20
2023-01-07T16:03:56.321Z,8.10
2023-01-07T16:06:32.877Z,8.00
2023-01-07T16:09:04.679Z,8.00
2023-01-07T16:11:32.428Z,7.90
2023-01-07T16:14:02.736Z,7.80
2023-01-07T16:16:32.092Z,7.80
2023-01-07T16:19:02.070Z,7.70
2023-01-07T16:21:54.790Z,7.70
2023-01-07T16:24:22.323Z,7.70
2023-01-07T16:27:05.687Z,7.70
2023-01-07T16:29:46.673Z,7.60
2023-01-07T16:32:14.552Z,7.60
2023-01-07T16:34:42.417Z,7.50
2023-01-07T16:37:17.259Z,7.50
2023-01-07T16:39:51.568Z,7.50
2023-01-07T16:42:20.919Z,7.50
2023-01-07T16:44:50.084Z,7.40
2023-01-07T16:47:24.718Z,7.40
2023-01-07T16:49:58.464Z,7.40
2023-01-07T16:52:35.029Z,7.30
2023-01-07T16:55:02.332Z,7.20
2023-01-07T16:57:42.288Z,7.20
2023-01-07T17:00:18.668Z,7.10
2023-01-07T17:02:57.342Z,7.10
2023-01-07T17:05:27.467Z,7.00
2023-01-07T17:08:02.054Z,7.00
2023-01-07T17:10:35.409Z,7.00
2023-01-07T17:13:14.853Z,7.00
2023-01-07T17:15:43.805Z,6.90
2023-01-07T17:18:15.159Z,6.80
2023-01-07T17:20:50.911Z,6.70
2023-01-07T17:23:27.099Z,6.70
2023-01-07T17:26:18.540Z,6.60
2023-01-07T17:28:50.535Z,6.50
2023-01-07T17:31:18.367Z,6.60
2023-01-07T17:33:46.014Z,6.60
2023-01-07T17:36:24.404Z,6.50
2023-01-07T17:38:52.594Z,6.50
2023-01-07T17:41:40.193Z,6.40
2023-01-07T17:44:13.133Z,6.40
2023-01-07T17:46:42.626Z,6.30
2023-01-07T17:49:14.003Z,6.30
2023-01-07T17:51:44.500Z,6.30
2023-01-07T17:54:21.557Z,6.20
2023-01-07T17:56:49.160Z,6.10
2023-01-07T17:59:18.718Z,6.10
2023-01-07T18:01:46.786Z,6.10
2023-01-07T18:04:18.287Z,6.00
2023-01-07T18:06:46.035Z,6.00
2023-01-07T18:09:13.833Z,5.90
2023-01-07T18:12:05.005Z,5.90
2023-01-07T18:14:32.911Z,5.80
2023-01-07T18:17:00.196Z,5.80
2023-01-07T18:19:28.428Z,5.70
2023-01-07T18:21:55.587Z,5.60
2023-01-07T18:24:24.630Z,5.60
2023-01-07T18:26:52.062Z,5.60
2023-01-07T18:29:19.280Z,5.50
2023-01-07T18:31:46.848Z,5.50
2023-01-07T18:34:15.976Z,5.50
2023-01-07T18:36:43.738Z,5.40
2023-01-07T18:39:19.163Z,5.40
2023-01-07T18:41:49.097Z,5.30
2023-01-07T18:44:18.594Z,5.30
2023-01-07T18:46:46.471Z,5.20
2023-01-07T18:49:14.014Z,5.20
2023-01-07T18:51:41.405Z,5.20
2023-01-07T18:54:09.041Z,5.10
2023-01-07T18:56:36.273Z,5.00
2023-01-07T18:59:03.923Z,5.10
2023-01-07T19:01:31.472Z,5.00
2023-01-07T19:03:58.830Z,5.00
2023-01-07T19:06:27.525Z,4.90
2023-01-07T19:08:56.777Z,5.00
2023-01-07T19:11:24.004Z,5.00
2023-01-07T19:13:51.578Z,5.00
2023-01-07T19:16:18.912Z,5.00
2023-01-07T19:18:46.592Z,5.00
2023-01-07T19:21:14.759Z,4.90
2023-01-07T19:23:44.923Z,4.90
2023-01-07T19:26:13.046Z,4.90
2023-01-07T19:28:40.309Z,4.90
2023-01-07T19:31:09.314Z,4.90
2023-01-07T19:33:37.278Z,4.90
2023-01-07T19:36:12.882Z,4.80
2023-01-07T19:38:41.719Z,4.80
2023-01-07T19:41:11.065Z,4.70
2023-01-07T19:43:39.353Z,4.70
2023-01-07T19:46:08.404Z,4.60
2023-01-07T19:48:36.354Z,4.60
2023-01-07T19:51:05.565Z,4.50
2023-01-07T19:53:34.129Z,4.50
2023-01-07T19:56:03.245Z,4.40
2023-01-07T19:58:31.175Z,4.40
2023-01-07T20:01:08.489Z,4.30
2023-01-07T20:03:36.994Z,4.30
2023-01-07T20:06:10.194Z,4.20
2023-01-07T20:08:38.787Z,4.20
2023-01-07T20:11:07.872Z,4.10
2023-01-07T20:13:36.990Z,4.00
2023-01-07T20:16:23.995Z,4.00
2023-01-07T20:18:55.875Z,4.00
2023-01-07T20:21:28.822Z,4.00
2023-01-07T20:23:56.368Z,3.90
2023-01-07T20:26:26.112Z,3.90
2023-01-07T20:28:53.658Z,3.90
2023-01-07T20:31:23.486Z,4.00
2023-01-07T20:33:51.276Z,3.90
2023-01-07T20:36:21.098Z,3.80
2023-01-07T20:38:49.158Z,3.70
2023-01-07T20:41:21.573Z,3.60
2023-01-07T20:43:58.342Z,3.60
2023-01-07T20:46:28.418Z,3.60
2023-01-07T20:48:57.571Z,3.50
2023-01-07T20:51:25.226Z,3.50
2023-01-07T20:53:54.383Z,3.50
2023-01-07T20:56:23.596Z,3.50
2023-01-07T20:58:53.425Z,3.50
2023-01-07T21:01:21.867Z,3.40
2023-01-07T21:03:49.739Z,3.30
2023-01-07T21:06:19.898Z,3.20
2023-01-07T21:08:48.579Z,3.20
2023-01-07T21:11:21.504Z,3.10
2023-01-07T21:13:50.048Z,3.00
2023-01-07T21:16:17.794Z,3.00
2023-01-07T21:18:46.190Z,2.90
2023-01-07T21:21:19.590Z,2.90
2023-01-07T21:23:48.222Z,2.80
2023-01-07T21:26:16.476Z,2.80
2023-01-07T21:28:44.729Z,2.80
2023-01-07T21:31:14.151Z,2.70
2023-01-07T21:33:42.433Z,2.70
2023-01-07T21:36:15.807Z,2.60
2023-01-07T21:38:45.378Z,2.60
2023-01-07T21:41:15.629Z,2.60
2023-01-07T21:43:46.948Z,2.60
2023-01-07T21:46:17.458Z,2.60
2023-01-07T21:48:46.993Z,2.50
2023-01-07T21:51:20.609Z,2.40
2023-01-07T21:53:48.249Z,2.40
2023-01-07T21:56:18.528Z,2.40
2023-01-07T21:58:46.754Z,2.40
2023-01-07T22:01:14.993Z,2.40
2023-01-07T22:03:46.768Z,2.30
2023-01-07T22:06:20.567Z,2.30
2023-01-07T22:08:48.983Z,2.30
2023-01-07T22:11:18.173Z,2.30
2023-01-07T22:13:49.398Z,2.30
2023-01-07T22:16:16.629Z,2.30
2023-01-07T22:18:43.852Z,2.30
2023-01-07T22:21:11.172Z,2.30
2023-01-07T22:23:38.735Z,2.30
2023-01-07T22:26:07.260Z,2.30
2023-01-07T22:28:37.400Z,2.20
2023-01-07T22:31:20.658Z,2.20
2023-01-07T22:33:48.037Z,2.20
2023-01-07T22:36:21.853Z,2.10
2023-01-07T22:38:50.535Z,2.10
2023-01-07T22:41:18.822Z,2.10
2023-01-07T22:43:46.138Z,2.10
2023-01-07T22:46:21.277Z,2.00
2023-01-07T22:48:49.442Z,2.00
2023-01-07T22:51:27.378Z,2.00
2023-01-07T22:53:58.268Z,2.00
2023-01-07T22:56:26.396Z,2.00
2023-01-07T22:58:53.585Z,2.00
2023-01-07T23:01:21.050Z,2.00
2023-01-07T23:03:48.494Z,2.00
2023-01-07T23:06:16.588Z,2.10
2023-01-07T23:08:44.703Z,2.00
2023-01-07T23:11:32.107Z,2.10
2023-01-07T23:13:59.851Z,2.10
2023-01-07T23:16:27.162Z,2.00
2023-01-07T23:18:54.626Z,2.00
2023-01-07T23:21:21.797Z,2.00
2023-01-07T23:23:49.011Z,2.00
2023-01-07T23:26:17.148Z,2.10
2023-01-07T23:28:44.330Z,2.20
2023-01-07T23:31:12.286Z,2.30
2023-01-07T23:33:39.902Z,2.40
2023-01-07T23:36:09.529Z,2.40
2023-01-07T23:38:37.174Z,2.30
2023-01-07T23:41:07.172Z,2.20
2023-01-07T23:43:35.569Z,2.10
2023-01-07T23:46:05.169Z,1.90
2023-01-07T23:48:34.923Z,1.90
2023-01-07T23:51:11.618Z,1.80
2023-01-07T23:53:39.793Z,1.80
2023-01-07T23:56:08.139Z,1.90
2023-01-07T23:58:36.311Z,1.80
